sensor_id;sensor_type;location;lat;lon;timestamp;pressure;altitude;pressure_sealevel;temperature;humidity
32733;BME280;11867;51.198;11.966;2023-07-02T00:00:31;99471.25;;;19.65;98.87
32733;BME280;11867;51.198;11.966;2023-07-02T00:01:54;99476.44;;;19.86;97.53
32733;BME280;11867;51.198;11.966;2023-07-02T00:03:16;99470.47;;;19.84;96.69
32733;BME280;11867;51.198;11.966;2023-07-02T00:04:40;99483.75;;;19.59;98.41
32733;BME280;11867;51.198;11.966;2023-07-02T00:06:03;99482.19;;;19.58;98.70
32733;BME280;11867;51.198;11.966;2023-07-02T00:07:27;99474.31;;;19.60;98.10
32733;BME280;11867;51.198;11.966;2023-07-02T00:08:50;99478.63;;;19.58;98.27
32733;BME280;11867;51.198;11.966;2023-07-02T00:10:12;99471.34;;;19.69;97.78
32733;BME280;11867;51.198;11.966;2023-07-02T00:11:35;99470.53;;;19.68;97.78
32733;BME280;11867;51.198;11.966;2023-07-02T00:12:57;99473.00;;;19.54;98.42
32733;BME280;11867;51.198;11.966;2023-07-02T00:14:20;99468.63;;;19.53;98.59
32733;BME280;11867;51.198;11.966;2023-07-02T00:15:43;99467.28;;;19.82;96.62
32733;BME280;11867;51.198;11.966;2023-07-02T00:17:06;99463.72;;;20.01;95.52
32733;BME280;11867;51.198;11.966;2023-07-02T00:18:28;99469.16;;;19.78;96.38
32733;BME280;11867;51.198;11.966;2023-07-02T00:19:58;99469.16;;;19.59;97.32
32733;BME280;11867;51.198;11.966;2023-07-02T00:21:24;99474.69;;;19.59;97.48
32733;BME280;11867;51.198;11.966;2023-07-02T00:22:51;99466.13;;;19.64;97.93
32733;BME280;11867;51.198;11.966;2023-07-02T00:24:13;99471.34;;;19.69;97.65
32733;BME280;11867;51.198;11.966;2023-07-02T00:25:37;99480.44;;;19.69;96.65
32733;BME280;11867;51.198;11.966;2023-07-02T00:26:59;99464.81;;;19.96;95.72
32733;BME280;11867;51.198;11.966;2023-07-02T00:28:22;99472.25;;;19.73;96.82
32733;BME280;11867;51.198;11.966;2023-07-02T00:29:44;99471.78;;;19.90;96.23
32733;BME280;11867;51.198;11.966;2023-07-02T00:31:07;99478.78;;;20.04;94.50
32733;BME280;11867;51.198;11.966;2023-07-02T00:32:30;99474.41;;;20.03;94.12
32733;BME280;11867;51.198;11.966;2023-07-02T00:33:55;99477.03;;;19.95;94.44
32733;BME280;11867;51.198;11.966;2023-07-02T00:35:17;99465.81;;;20.08;94.63
32733;BME280;11867;51.198;11.966;2023-07-02T00:36:40;99475.88;;;19.96;94.42
32733;BME280;11867;51.198;11.966;2023-07-02T00:38:04;99476.97;;;19.92;94.92
32733;BME280;11867;51.198;11.966;2023-07-02T00:39:27;99476.00;;;19.84;95.48
32733;BME280;11867;51.198;11.966;2023-07-02T00:40:49;99469.25;;;20.01;94.96
32733;BME280;11867;51.198;11.966;2023-07-02T00:42:13;99478.13;;;20.10;94.47
32733;BME280;11867;51.198;11.966;2023-07-02T00:43:38;99469.38;;;20.08;94.02
32733;BME280;11867;51.198;11.966;2023-07-02T00:45:06;99469.75;;;20.07;94.15
32733;BME280;11867;51.198;11.966;2023-07-02T00:46:30;99468.16;;;20.06;93.59
32733;BME280;11867;51.198;11.966;2023-07-02T00:47:54;99470.34;;;19.77;97.03
32733;BME280;11867;51.198;11.966;2023-07-02T00:49:17;99471.59;;;19.80;97.04
32733;BME280;11867;51.198;11.966;2023-07-02T00:50:40;99479.75;;;19.37;100.00
32733;BME280;11867;51.198;11.966;2023-07-02T00:52:04;99480.94;;;19.55;100.00
32733;BME280;11867;51.198;11.966;2023-07-02T00:53:27;99476.69;;;19.78;97.90
32733;BME280;11867;51.198;11.966;2023-07-02T00:54:50;99478.59;;;19.93;97.65
32733;BME280;11867;51.198;11.966;2023-07-02T00:56:13;99466.41;;;19.98;95.77
32733;BME280;11867;51.198;11.966;2023-07-02T00:57:36;99469.91;;;19.94;96.61
32733;BME280;11867;51.198;11.966;2023-07-02T00:58:58;99468.94;;;20.06;95.93
32733;BME280;11867;51.198;11.966;2023-07-02T01:00:23;99463.94;;;20.12;96.28
32733;BME280;11867;51.198;11.966;2023-07-02T01:01:45;99467.19;;;20.18;96.18
32733;BME280;11867;51.198;11.966;2023-07-02T01:03:11;99479.72;;;19.92;97.90
32733;BME280;11867;51.198;11.966;2023-07-02T01:04:33;99471.44;;;19.92;97.70
32733;BME280;11867;51.198;11.966;2023-07-02T01:05:58;99476.25;;;19.95;97.80
32733;BME280;11867;51.198;11.966;2023-07-02T01:07:20;99471.31;;;19.85;98.26
32733;BME280;11867;51.198;11.966;2023-07-02T01:08:44;99467.56;;;19.96;97.83
32733;BME280;11867;51.198;11.966;2023-07-02T01:10:07;99471.78;;;19.51;100.00
32733;BME280;11867;51.198;11.966;2023-07-02T01:11:36;99476.69;;;19.42;100.00
32733;BME280;11867;51.198;11.966;2023-07-02T01:13:04;99476.56;;;19.35;100.00
32733;BME280;11867;51.198;11.966;2023-07-02T01:17:06;99486.09;;;19.22;100.00
32733;BME280;11867;51.198;11.966;2023-07-02T01:18:29;99489.38;;;19.43;100.00
32733;BME280;11867;51.198;11.966;2023-07-02T01:19:54;99486.06;;;19.38;100.00
32733;BME280;11867;51.198;11.966;2023-07-02T01:21:22;99481.25;;;19.34;100.00
32733;BME280;11867;51.198;11.966;2023-07-02T01:22:44;99479.31;;;19.35;100.00
32733;BME280;11867;51.198;11.966;2023-07-02T01:24:07;99474.53;;;19.51;100.00
32733;BME280;11867;51.198;11.966;2023-07-02T01:25:29;99478.66;;;19.42;100.00
32733;BME280;11867;51.198;11.966;2023-07-02T01:26:53;99483.00;;;19.23;100.00
32733;BME280;11867;51.198;11.966;2023-07-02T01:28:17;99473.03;;;19.19;100.00
32733;BME280;11867;51.198;11.966;2023-07-02T01:29:41;99483.34;;;19.22;100.00
32733;BME280;11867;51.198;11.966;2023-07-02T01:31:04;99481.19;;;19.31;100.00
32733;BME280;11867;51.198;11.966;2023-07-02T01:32:27;99479.44;;;19.23;100.00
32733;BME280;11867;51.198;11.966;2023-07-02T01:33:51;99475.34;;;19.01;100.00
32733;BME280;11867;51.198;11.966;2023-07-02T01:35:14;99475.97;;;18.62;100.00
32733;BME280;11867;51.198;11.966;2023-07-02T01:36:38;99472.59;;;18.85;100.00
32733;BME280;11867;51.198;11.966;2023-07-02T01:38:01;99476.00;;;18.94;100.00
32733;BME280;11867;51.198;11.966;2023-07-02T01:39:23;99474.31;;;18.89;100.00
32733;BME280;11867;51.198;11.966;2023-07-02T01:40:46;99473.56;;;18.76;100.00
32733;BME280;11867;51.198;11.966;2023-07-02T01:42:10;99480.00;;;18.97;100.00
32733;BME280;11867;51.198;11.966;2023-07-02T01:43:33;99486.41;;;18.85;100.00
32733;BME280;11867;51.198;11.966;2023-07-02T01:44:55;99485.16;;;18.98;100.00
32733;BME280;11867;51.198;11.966;2023-07-02T01:46:18;99482.41;;;18.98;100.00
32733;BME280;11867;51.198;11.966;2023-07-02T01:47:41;99481.69;;;19.01;100.00
32733;BME280;11867;51.198;11.966;2023-07-02T01:49:03;99478.47;;;19.15;100.00
32733;BME280;11867;51.198;11.966;2023-07-02T01:50:27;99481.88;;;19.08;100.00
32733;BME280;11867;51.198;11.966;2023-07-02T01:51:49;99485.31;;;19.05;100.00
32733;BME280;11867;51.198;11.966;2023-07-02T01:53:12;99489.06;;;18.97;100.00
32733;BME280;11867;51.198;11.966;2023-07-02T01:54:35;99490.25;;;18.80;100.00
32733;BME280;11867;51.198;11.966;2023-07-02T01:55:58;99492.81;;;18.89;100.00
32733;BME280;11867;51.198;11.966;2023-07-02T01:57:22;99482.50;;;18.86;100.00
32733;BME280;11867;51.198;11.966;2023-07-02T01:58:44;99489.97;;;19.01;100.00
32733;BME280;11867;51.198;11.966;2023-07-02T02:00:07;99488.72;;;18.83;100.00
32733;BME280;11867;51.198;11.966;2023-07-02T02:01:31;99484.53;;;18.89;100.00
32733;BME280;11867;51.198;11.966;2023-07-02T02:02:54;99489.28;;;18.88;100.00
32733;BME280;11867;51.198;11.966;2023-07-02T02:04:18;99487.34;;;19.24;100.00
32733;BME280;11867;51.198;11.966;2023-07-02T02:05:41;99488.81;;;19.02;100.00
32733;BME280;11867;51.198;11.966;2023-07-02T02:07:04;99496.00;;;18.59;100.00
32733;BME280;11867;51.198;11.966;2023-07-02T02:08:26;99494.56;;;18.49;100.00
32733;BME280;11867;51.198;11.966;2023-07-02T02:09:49;99505.88;;;18.44;100.00
32733;BME280;11867;51.198;11.966;2023-07-02T02:11:11;99503.28;;;18.35;100.00
32733;BME280;11867;51.198;11.966;2023-07-02T02:12:34;99510.06;;;18.54;100.00
32733;BME280;11867;51.198;11.966;2023-07-02T02:13:56;99504.63;;;18.58;100.00
32733;BME280;11867;51.198;11.966;2023-07-02T02:15:19;99504.00;;;18.64;100.00
32733;BME280;11867;51.198;11.966;2023-07-02T02:16:42;99496.91;;;18.63;100.00
32733;BME280;11867;51.198;11.966;2023-07-02T02:18:07;99503.22;;;18.64;100.00
32733;BME280;11867;51.198;11.966;2023-07-02T02:19:29;99497.69;;;18.64;100.00
32733;BME280;11867;51.198;11.966;2023-07-02T02:20:54;99507.63;;;18.81;100.00
32733;BME280;11867;51.198;11.966;2023-07-02T02:22:16;99509.50;;;18.92;100.00
32733;BME280;11867;51.198;11.966;2023-07-02T02:23:38;99507.16;;;18.94;100.00
32733;BME280;11867;51.198;11.966;2023-07-02T02:25:00;99504.22;;;18.71;100.00
32733;BME280;11867;51.198;11.966;2023-07-02T02:26:25;99510.25;;;18.61;100.00
32733;BME280;11867;51.198;11.966;2023-07-02T02:27:47;99520.75;;;18.55;100.00
32733;BME280;11867;51.198;11.966;2023-07-02T02:29:10;99530.72;;;18.60;100.00
32733;BME280;11867;51.198;11.966;2023-07-02T02:30:32;99513.38;;;18.75;100.00
32733;BME280;11867;51.198;11.966;2023-07-02T02:31:55;99519.19;;;18.86;100.00
32733;BME280;11867;51.198;11.966;2023-07-02T02:33:16;99509.72;;;18.71;100.00
32733;BME280;11867;51.198;11.966;2023-07-02T02:34:39;99508.91;;;18.55;100.00
32733;BME280;11867;51.198;11.966;2023-07-02T02:36:03;99509.09;;;18.62;100.00
32733;BME280;11867;51.198;11.966;2023-07-02T02:37:26;99511.78;;;18.59;100.00
32733;BME280;11867;51.198;11.966;2023-07-02T02:38:49;99513.44;;;18.47;100.00
32733;BME280;11867;51.198;11.966;2023-07-02T02:40:12;99522.28;;;18.53;100.00
32733;BME280;11867;51.198;11.966;2023-07-02T02:41:34;99513.03;;;18.77;100.00
32733;BME280;11867;51.198;11.966;2023-07-02T02:42:56;99523.66;;;18.91;100.00
32733;BME280;11867;51.198;11.966;2023-07-02T02:44:19;99520.22;;;18.66;100.00
32733;BME280;11867;51.198;11.966;2023-07-02T02:45:41;99525.56;;;18.43;100.00
32733;BME280;11867;51.198;11.966;2023-07-02T02:47:04;99528.69;;;18.57;100.00
32733;BME280;11867;51.198;11.966;2023-07-02T02:48:27;99533.50;;;18.60;100.00
32733;BME280;11867;51.198;11.966;2023-07-02T02:49:50;99528.34;;;18.74;100.00
32733;BME280;11867;51.198;11.966;2023-07-02T02:51:13;99534.38;;;18.64;100.00
32733;BME280;11867;51.198;11.966;2023-07-02T02:52:36;99532.63;;;18.72;100.00
32733;BME280;11867;51.198;11.966;2023-07-02T02:53:58;99542.00;;;18.99;100.00
32733;BME280;11867;51.198;11.966;2023-07-02T02:55:21;99537.47;;;18.91;100.00
32733;BME280;11867;51.198;11.966;2023-07-02T02:56:43;99541.31;;;19.02;100.00
32733;BME280;11867;51.198;11.966;2023-07-02T02:58:05;99540.31;;;19.10;100.00
32733;BME280;11867;51.198;11.966;2023-07-02T02:59:28;99540.88;;;19.00;100.00
32733;BME280;11867;51.198;11.966;2023-07-02T03:00:51;99540.16;;;18.87;100.00
32733;BME280;11867;51.198;11.966;2023-07-02T03:02:14;99540.34;;;18.66;100.00
32733;BME280;11867;51.198;11.966;2023-07-02T03:03:38;99539.91;;;18.64;100.00
32733;BME280;11867;51.198;11.966;2023-07-02T03:05:01;99536.25;;;18.44;100.00
32733;BME280;11867;51.198;11.966;2023-07-02T03:06:25;99536.63;;;18.59;100.00
32733;BME280;11867;51.198;11.966;2023-07-02T03:07:49;99540.81;;;18.52;100.00
32733;BME280;11867;51.198;11.966;2023-07-02T03:09:11;99548.19;;;18.64;100.00
32733;BME280;11867;51.198;11.966;2023-07-02T03:10:34;99541.78;;;18.76;100.00
32733;BME280;11867;51.198;11.966;2023-07-02T03:11:56;99541.25;;;18.70;100.00
32733;BME280;11867;51.198;11.966;2023-07-02T03:13:19;99544.22;;;18.78;100.00
32733;BME280;11867;51.198;11.966;2023-07-02T03:14:41;99539.63;;;18.82;100.00
32733;BME280;11867;51.198;11.966;2023-07-02T03:16:04;99540.75;;;18.81;100.00
32733;BME280;11867;51.198;11.966;2023-07-02T03:17:26;99539.19;;;18.95;100.00
32733;BME280;11867;51.198;11.966;2023-07-02T03:18:49;99531.84;;;19.03;100.00
32733;BME280;11867;51.198;11.966;2023-07-02T03:20:11;99536.03;;;19.13;98.95
32733;BME280;11867;51.198;11.966;2023-07-02T03:21:36;99546.19;;;19.09;98.96
32733;BME280;11867;51.198;11.966;2023-07-02T03:22:58;99538.72;;;19.09;98.45
32733;BME280;11867;51.198;11.966;2023-07-02T03:24:21;99541.47;;;19.09;97.50
32733;BME280;11867;51.198;11.966;2023-07-02T03:25:44;99542.72;;;19.12;97.54
32733;BME280;11867;51.198;11.966;2023-07-02T03:27:06;99541.91;;;19.27;96.47
32733;BME280;11867;51.198;11.966;2023-07-02T03:28:29;99535.69;;;18.83;98.55
32733;BME280;11867;51.198;11.966;2023-07-02T03:29:52;99541.19;;;18.83;98.73
32733;BME280;11867;51.198;11.966;2023-07-02T03:31:15;99538.25;;;18.75;98.22
32733;BME280;11867;51.198;11.966;2023-07-02T03:32:37;99541.63;;;18.69;98.99
32733;BME280;11867;51.198;11.966;2023-07-02T03:34:02;99550.72;;;18.69;98.43
32733;BME280;11867;51.198;11.966;2023-07-02T03:35:25;99541.50;;;18.49;99.21
32733;BME280;11867;51.198;11.966;2023-07-02T03:36:49;99549.00;;;18.65;98.70
32733;BME280;11867;51.198;11.966;2023-07-02T03:38:12;99546.63;;;18.35;99.46
32733;BME280;11867;51.198;11.966;2023-07-02T03:39:34;99556.31;;;18.29;100.00
32733;BME280;11867;51.198;11.966;2023-07-02T03:40:57;99549.59;;;18.42;99.80
32733;BME280;11867;51.198;11.966;2023-07-02T03:42:20;99552.69;;;18.41;99.99
32733;BME280;11867;51.198;11.966;2023-07-02T03:43:41;99555.00;;;18.39;99.50
32733;BME280;11867;51.198;11.966;2023-07-02T03:45:05;99553.59;;;17.88;100.00
32733;BME280;11867;51.198;11.966;2023-07-02T03:46:27;99560.66;;;18.02;100.00
32733;BME280;11867;51.198;11.966;2023-07-02T03:47:50;99560.88;;;18.09;100.00
32733;BME280;11867;51.198;11.966;2023-07-02T03:49:13;99563.38;;;18.14;100.00
32733;BME280;11867;51.198;11.966;2023-07-02T03:50:36;99558.78;;;18.18;100.00
32733;BME280;11867;51.198;11.966;2023-07-02T03:51:59;99551.59;;;18.01;100.00
32733;BME280;11867;51.198;11.966;2023-07-02T03:53:22;99562.03;;;18.08;100.00
32733;BME280;11867;51.198;11.966;2023-07-02T03:54:44;99559.03;;;18.13;99.75
32733;BME280;11867;51.198;11.966;2023-07-02T03:56:07;99560.94;;;18.25;99.64
32733;BME280;11867;51.198;11.966;2023-07-02T03:57:29;99569.59;;;18.39;99.28
32733;BME280;11867;51.198;11.966;2023-07-02T03:58:52;99568.09;;;18.42;97.72
32733;BME280;11867;51.198;11.966;2023-07-02T04:00:14;99566.78;;;18.35;97.66
32733;BME280;11867;51.198;11.966;2023-07-02T04:01:37;99569.59;;;18.39;97.97
32733;BME280;11867;51.198;11.966;2023-07-02T04:02:59;99571.75;;;18.46;98.02
32733;BME280;11867;51.198;11.966;2023-07-02T04:04:24;99570.41;;;18.40;97.13
32733;BME280;11867;51.198;11.966;2023-07-02T04:05:46;99574.50;;;18.30;97.70
32733;BME280;11867;51.198;11.966;2023-07-02T04:07:11;99573.19;;;18.11;98.87
32733;BME280;11867;51.198;11.966;2023-07-02T04:08:32;99572.25;;;18.07;98.55
32733;BME280;11867;51.198;11.966;2023-07-02T04:09:56;99571.94;;;18.09;98.57
32733;BME280;11867;51.198;11.966;2023-07-02T04:11:18;99580.91;;;17.93;99.24
32733;BME280;11867;51.198;11.966;2023-07-02T04:12:41;99578.94;;;17.82;100.00
32733;BME280;11867;51.198;11.966;2023-07-02T04:14:03;99584.25;;;17.99;99.61
32733;BME280;11867;51.198;11.966;2023-07-02T04:15:26;99586.66;;;18.01;100.00
32733;BME280;11867;51.198;11.966;2023-07-02T04:16:48;99581.16;;;18.01;100.00
32733;BME280;11867;51.198;11.966;2023-07-02T04:18:11;99570.75;;;18.10;99.30
32733;BME280;11867;51.198;11.966;2023-07-02T04:19:33;99574.00;;;18.00;98.93
32733;BME280;11867;51.198;11.966;2023-07-02T04:20:56;99574.22;;;18.07;98.35
32733;BME280;11867;51.198;11.966;2023-07-02T04:22:21;99582.50;;;18.07;98.97
32733;BME280;11867;51.198;11.966;2023-07-02T04:23:43;99581.41;;;18.24;98.28
32733;BME280;11867;51.198;11.966;2023-07-02T04:25:07;99570.03;;;18.25;97.11
32733;BME280;11867;51.198;11.966;2023-07-02T04:26:49;99571.22;;;18.40;96.88
32733;BME280;11867;51.198;11.966;2023-07-02T04:28:32;99575.41;;;18.50;96.98
32733;BME280;11867;51.198;11.966;2023-07-02T04:29:55;99576.00;;;18.27;96.87
32733;BME280;11867;51.198;11.966;2023-07-02T04:31:17;99576.50;;;18.17;97.43
32733;BME280;11867;51.198;11.966;2023-07-02T04:32:41;99576.63;;;18.37;96.36
32733;BME280;11867;51.198;11.966;2023-07-02T04:34:04;99582.84;;;18.05;97.48
32733;BME280;11867;51.198;11.966;2023-07-02T04:35:27;99580.72;;;18.14;97.76
32733;BME280;11867;51.198;11.966;2023-07-02T04:36:50;99586.06;;;18.07;97.33
32733;BME280;11867;51.198;11.966;2023-07-02T04:38:16;99587.13;;;18.03;96.90
32733;BME280;11867;51.198;11.966;2023-07-02T04:39:39;99590.91;;;17.98;97.44
32733;BME280;11867;51.198;11.966;2023-07-02T04:41:01;99589.38;;;18.13;97.32
32733;BME280;11867;51.198;11.966;2023-07-02T04:42:27;99582.25;;;18.12;96.65
32733;BME280;11867;51.198;11.966;2023-07-02T04:43:53;99587.97;;;18.19;96.15
32733;BME280;11867;51.198;11.966;2023-07-02T04:45:16;99577.91;;;18.11;96.60
32733;BME280;11867;51.198;11.966;2023-07-02T04:46:39;99584.84;;;18.21;96.40
32733;BME280;11867;51.198;11.966;2023-07-02T04:48:01;99585.81;;;18.41;95.73
32733;BME280;11867;51.198;11.966;2023-07-02T04:49:24;99584.41;;;18.47;93.90
32733;BME280;11867;51.198;11.966;2023-07-02T04:50:46;99595.59;;;18.38;95.10
32733;BME280;11867;51.198;11.966;2023-07-02T04:52:10;99597.31;;;18.43;95.00
32733;BME280;11867;51.198;11.966;2023-07-02T04:53:33;99592.69;;;18.47;95.19
32733;BME280;11867;51.198;11.966;2023-07-02T04:54:56;99594.00;;;18.37;95.26
32733;BME280;11867;51.198;11.966;2023-07-02T04:56:18;99591.47;;;18.60;94.49
32733;BME280;11867;51.198;11.966;2023-07-02T04:57:41;99592.44;;;18.80;93.63
32733;BME280;11867;51.198;11.966;2023-07-02T04:59:03;99593.69;;;18.99;93.14
32733;BME280;11867;51.198;11.966;2023-07-02T05:00:26;99592.09;;;19.13;92.27
32733;BME280;11867;51.198;11.966;2023-07-02T05:01:48;99597.28;;;19.15;91.85
32733;BME280;11867;51.198;11.966;2023-07-02T05:03:11;99607.34;;;19.23;91.87
32733;BME280;11867;51.198;11.966;2023-07-02T05:04:33;99611.00;;;19.43;90.36
32733;BME280;11867;51.198;11.966;2023-07-02T05:05:56;99610.09;;;19.39;90.21
32733;BME280;11867;51.198;11.966;2023-07-02T05:07:18;99607.94;;;19.48;89.51
32733;BME280;11867;51.198;11.966;2023-07-02T05:08:42;99604.38;;;19.64;89.00
32733;BME280;11867;51.198;11.966;2023-07-02T05:10:05;99599.59;;;19.29;89.98
32733;BME280;11867;51.198;11.966;2023-07-02T05:11:28;99597.63;;;19.45;90.08
32733;BME280;11867;51.198;11.966;2023-07-02T05:12:50;99610.16;;;19.59;89.85
32733;BME280;11867;51.198;11.966;2023-07-02T05:14:13;99614.72;;;19.51;89.81
32733;BME280;11867;51.198;11.966;2023-07-02T05:15:35;99614.03;;;19.38;89.84
32733;BME280;11867;51.198;11.966;2023-07-02T05:16:58;99615.25;;;18.93;92.20
32733;BME280;11867;51.198;11.966;2023-07-02T05:18:21;99618.09;;;18.81;92.20
32733;BME280;11867;51.198;11.966;2023-07-02T05:19:43;99618.66;;;19.02;92.44
32733;BME280;11867;51.198;11.966;2023-07-02T05:21:06;99616.63;;;19.31;91.27
32733;BME280;11867;51.198;11.966;2023-07-02T05:22:29;99618.84;;;19.41;91.22
32733;BME280;11867;51.198;11.966;2023-07-02T05:23:52;99623.03;;;19.35;90.62
32733;BME280;11867;51.198;11.966;2023-07-02T05:25:15;99622.75;;;19.08;91.45
32733;BME280;11867;51.198;11.966;2023-07-02T05:26:37;99621.59;;;19.25;91.52
32733;BME280;11867;51.198;11.966;2023-07-02T05:28:00;99621.31;;;19.30;91.49
32733;BME280;11867;51.198;11.966;2023-07-02T05:29:23;99627.31;;;19.17;91.49
32733;BME280;11867;51.198;11.966;2023-07-02T05:30:45;99621.69;;;19.29;91.09
32733;BME280;11867;51.198;11.966;2023-07-02T05:32:09;99629.06;;;19.41;91.01
32733;BME280;11867;51.198;11.966;2023-07-02T05:33:31;99626.94;;;19.02;92.18
32733;BME280;11867;51.198;11.966;2023-07-02T05:34:55;99623.09;;;18.91;92.37
32733;BME280;11867;51.198;11.966;2023-07-02T05:36:17;99625.59;;;18.96;92.54
32733;BME280;11867;51.198;11.966;2023-07-02T05:37:40;99617.25;;;19.08;92.81
32733;BME280;11867;51.198;11.966;2023-07-02T05:39:03;99619.28;;;19.27;91.85
32733;BME280;11867;51.198;11.966;2023-07-02T05:40:26;99627.03;;;19.22;92.31
32733;BME280;11867;51.198;11.966;2023-07-02T05:41:49;99615.72;;;19.27;91.53
32733;BME280;11867;51.198;11.966;2023-07-02T05:43:11;99617.31;;;19.28;92.03
32733;BME280;11867;51.198;11.966;2023-07-02T05:44:34;99619.91;;;19.36;91.47
32733;BME280;11867;51.198;11.966;2023-07-02T05:45:58;99617.75;;;19.14;91.90
32733;BME280;11867;51.198;11.966;2023-07-02T05:47:22;99619.34;;;18.99;93.33
32733;BME280;11867;51.198;11.966;2023-07-02T05:48:45;99617.03;;;19.01;93.73
32733;BME280;11867;51.198;11.966;2023-07-02T05:50:08;99619.09;;;19.04;93.98
32733;BME280;11867;51.198;11.966;2023-07-02T05:51:31;99622.22;;;19.03;93.66
32733;BME280;11867;51.198;11.966;2023-07-02T05:52:54;99621.44;;;19.02;94.68
32733;BME280;11867;51.198;11.966;2023-07-02T05:54:18;99628.81;;;19.30;93.43
32733;BME280;11867;51.198;11.966;2023-07-02T05:55:40;99616.59;;;19.47;92.24
32733;BME280;11867;51.198;11.966;2023-07-02T05:57:04;99620.88;;;19.44;92.84
32733;BME280;11867;51.198;11.966;2023-07-02T05:58:27;99616.03;;;19.57;91.48
32733;BME280;11867;51.198;11.966;2023-07-02T06:00:08;99620.59;;;19.65;92.13
32733;BME280;11867;51.198;11.966;2023-07-02T06:01:31;99621.03;;;19.67;91.68
32733;BME280;11867;51.198;11.966;2023-07-02T06:02:54;99622.75;;;19.40;91.78
32733;BME280;11867;51.198;11.966;2023-07-02T06:04:18;99616.63;;;19.15;93.83
32733;BME280;11867;51.198;11.966;2023-07-02T06:05:40;99619.34;;;18.99;94.61
32733;BME280;11867;51.198;11.966;2023-07-02T06:07:03;99621.78;;;19.17;94.86
32733;BME280;11867;51.198;11.966;2023-07-02T06:08:25;99622.56;;;19.01;94.06
32733;BME280;11867;51.198;11.966;2023-07-02T06:09:50;99619.69;;;18.82;96.32
32733;BME280;11867;51.198;11.966;2023-07-02T06:11:13;99626.50;;;19.00;95.91
32733;BME280;11867;51.198;11.966;2023-07-02T06:12:35;99621.44;;;19.02;94.93
32733;BME280;11867;51.198;11.966;2023-07-02T06:13:58;99626.13;;;18.86;94.76
32733;BME280;11867;51.198;11.966;2023-07-02T06:15:20;99629.50;;;18.95;95.19
32733;BME280;11867;51.198;11.966;2023-07-02T06:16:42;99615.19;;;18.89;94.89
32733;BME280;11867;51.198;11.966;2023-07-02T06:18:04;99615.97;;;18.90;95.26
32733;BME280;11867;51.198;11.966;2023-07-02T06:19:28;99617.41;;;19.00;94.45
32733;BME280;11867;51.198;11.966;2023-07-02T06:20:50;99615.63;;;19.07;92.25
32733;BME280;11867;51.198;11.966;2023-07-02T06:22:13;99621.66;;;18.97;93.02
32733;BME280;11867;51.198;11.966;2023-07-02T06:23:41;99627.47;;;19.08;92.35
32733;BME280;11867;51.198;11.966;2023-07-02T06:25:07;99619.09;;;19.04;92.89
32733;BME280;11867;51.198;11.966;2023-07-02T06:26:30;99623.38;;;19.18;92.90
32733;BME280;11867;51.198;11.966;2023-07-02T06:27:54;99623.75;;;19.32;91.78
32733;BME280;11867;51.198;11.966;2023-07-02T06:29:19;99619.88;;;19.52;90.28
32733;BME280;11867;51.198;11.966;2023-07-02T06:30:42;99616.78;;;19.38;89.96
32733;BME280;11867;51.198;11.966;2023-07-02T06:32:06;99614.47;;;19.40;89.19
32733;BME280;11867;51.198;11.966;2023-07-02T06:33:29;99607.06;;;19.44;88.59
32733;BME280;11867;51.198;11.966;2023-07-02T06:34:51;99615.97;;;19.53;88.58
32733;BME280;11867;51.198;11.966;2023-07-02T06:36:14;99616.06;;;19.73;87.04
32733;BME280;11867;51.198;11.966;2023-07-02T06:37:39;99621.41;;;19.50;86.22
32733;BME280;11867;51.198;11.966;2023-07-02T06:39:01;99605.13;;;19.29;85.83
32733;BME280;11867;51.198;11.966;2023-07-02T06:40:25;99606.25;;;19.28;88.16
32733;BME280;11867;51.198;11.966;2023-07-02T06:41:47;99615.69;;;19.59;87.34
32733;BME280;11867;51.198;11.966;2023-07-02T06:43:10;99616.13;;;19.61;86.78
32733;BME280;11867;51.198;11.966;2023-07-02T06:44:32;99629.88;;;19.73;84.10
32733;BME280;11867;51.198;11.966;2023-07-02T06:45:55;99624.00;;;19.59;83.45
32733;BME280;11867;51.198;11.966;2023-07-02T06:47:17;99633.63;;;19.65;83.26
32733;BME280;11867;51.198;11.966;2023-07-02T06:48:42;99630.94;;;19.68;84.91
32733;BME280;11867;51.198;11.966;2023-07-02T06:50:05;99624.09;;;19.62;82.98
32733;BME280;11867;51.198;11.966;2023-07-02T06:51:28;99624.09;;;19.62;83.92
32733;BME280;11867;51.198;11.966;2023-07-02T06:52:51;99622.66;;;19.68;83.50
32733;BME280;11867;51.198;11.966;2023-07-02T06:54:13;99636.09;;;19.70;83.06
32733;BME280;11867;51.198;11.966;2023-07-02T06:55:38;99630.25;;;19.55;81.69
32733;BME280;11867;51.198;11.966;2023-07-02T06:57:00;99629.53;;;19.59;81.49
32733;BME280;11867;51.198;11.966;2023-07-02T06:58:23;99631.03;;;19.56;82.74
32733;BME280;11867;51.198;11.966;2023-07-02T06:59:46;99635.41;;;19.57;82.71
32733;BME280;11867;51.198;11.966;2023-07-02T07:01:11;99640.16;;;19.72;81.68
32733;BME280;11867;51.198;11.966;2023-07-02T07:02:34;99637.59;;;19.99;81.80
32733;BME280;11867;51.198;11.966;2023-07-02T07:03:57;99641.03;;;20.12;78.42
32733;BME280;11867;51.198;11.966;2023-07-02T07:05:20;99639.28;;;20.04;79.98
32733;BME280;11867;51.198;11.966;2023-07-02T07:06:43;99638.94;;;19.89;79.63
32733;BME280;11867;51.198;11.966;2023-07-02T07:08:07;99648.41;;;19.88;78.83
32733;BME280;11867;51.198;11.966;2023-07-02T07:09:30;99646.72;;;19.84;81.15
32733;BME280;11867;51.198;11.966;2023-07-02T07:10:54;99650.56;;;19.79;80.05
32733;BME280;11867;51.198;11.966;2023-07-02T07:12:16;99646.91;;;19.91;79.97
32733;BME280;11867;51.198;11.966;2023-07-02T07:13:39;99652.66;;;20.02;80.91
32733;BME280;11867;51.198;11.966;2023-07-02T07:15:02;99649.03;;;19.98;77.30
32733;BME280;11867;51.198;11.966;2023-07-02T07:16:26;99649.47;;;20.00;78.21